createdAt,value
2023-04-09T00:00:05.648Z,23.58
2023-04-09T00:02:34.172Z,23.58
2023-04-09T00:05:03.382Z,23.27
2023-04-09T00:07:32.143Z,23.27
2023-04-09T00:10:00.562Z,24.33
2023-04-09T00:12:30.312Z,23.25
2023-04-09T00:14:58.772Z,25.10
2023-04-09T00:17:28.605Z,23.35
2023-04-09T00:19:57.065Z,23.80
2023-04-09T00:22:25.520Z,23.80
2023-04-09T00:24:54.008Z,22.85
2023-04-09T00:27:22.454Z,23.05
2023-04-09T00:29:50.877Z,22.15
2023-04-09T00:32:19.324Z,23.60
2023-04-09T00:34:49.144Z,23.58
2023-04-09T00:37:17.575Z,22.65
2023-04-09T00:39:46.932Z,22.90
2023-04-09T00:42:16.546Z,23.38
2023-04-09T00:44:44.984Z,23.58
2023-04-09T00:47:13.462Z,21.67
2023-04-09T00:49:41.909Z,22.90
2023-04-09T00:52:11.798Z,22.73
2023-04-09T00:54:40.241Z,22.98
2023-04-09T00:57:08.689Z,22.02
2023-04-09T00:59:37.123Z,22.27
2023-04-09T01:02:05.677Z,22.85
2023-04-09T01:04:34.164Z,22.70
2023-04-09T01:07:07.130Z,24.23
2023-04-09T01:09:38.926Z,21.58
2023-04-09T01:12:11.650Z,22.40
2023-04-09T01:14:41.403Z,23.60
2023-04-09T01:17:16.349Z,24.13
2023-04-09T01:19:47.975Z,24.30
2023-04-09T01:22:40.904Z,23.00
2023-04-09T01:25:13.651Z,25.40
2023-04-09T01:27:47.351Z,23.33
2023-04-09T01:30:17.971Z,23.15
2023-04-09T01:32:46.831Z,22.27
2023-04-09T01:35:15.747Z,22.23
2023-04-09T01:37:44.530Z,20.55
2023-04-09T01:40:13.287Z,24.40
2023-04-09T01:42:42.695Z,22.77
2023-04-09T01:45:13.343Z,24.30
2023-04-09T01:47:43.389Z,23.95
2023-04-09T01:50:12.266Z,23.63
2023-04-09T01:52:40.779Z,24.33
2023-04-09T01:55:09.804Z,25.08
2023-04-09T01:57:38.534Z,23.75
2023-04-09T02:00:07.850Z,24.55
2023-04-09T02:02:38.567Z,25.23
2023-04-09T02:05:10.868Z,25.65
2023-04-09T02:07:40.612Z,25.70
2023-04-09T02:10:11.969Z,26.02
2023-04-09T02:12:40.885Z,25.90
2023-04-09T02:15:09.889Z,26.42
2023-04-09T02:17:38.565Z,26.00
2023-04-09T02:20:09.429Z,25.77
2023-04-09T02:22:37.908Z,26.02
2023-04-09T02:25:06.965Z,25.70
2023-04-09T02:27:35.827Z,26.13
2023-04-09T02:30:04.304Z,26.20
2023-04-09T02:32:32.793Z,26.42
2023-04-09T02:35:01.233Z,24.83
2023-04-09T02:37:31.268Z,27.20
2023-04-09T02:39:59.727Z,26.70
2023-04-09T02:42:28.218Z,27.02
2023-04-09T02:44:56.681Z,26.35
2023-04-09T02:47:27.207Z,25.83
2023-04-09T02:49:55.706Z,24.25
2023-04-09T02:52:25.033Z,27.25
2023-04-09T02:54:55.113Z,26.45
2023-04-09T02:57:23.544Z,25.40
2023-04-09T02:59:51.949Z,26.30
2023-04-09T03:02:20.496Z,25.85
2023-04-09T03:04:49.047Z,25.92
2023-04-09T03:07:17.492Z,26.33
2023-04-09T03:09:45.897Z,24.55
2023-04-09T03:12:15.812Z,25.58
2023-04-09T03:14:44.204Z,25.05
2023-04-09T03:17:12.660Z,24.13
2023-04-09T03:19:41.085Z,26.77
2023-04-09T03:22:09.531Z,24.73
2023-04-09T03:24:38.086Z,25.08
2023-04-09T03:27:06.550Z,25.80
2023-04-09T03:29:36.401Z,26.10
2023-04-09T03:32:04.851Z,25.45
2023-04-09T03:34:33.282Z,24.42
2023-04-09T03:37:01.742Z,23.52
2023-04-09T03:39:30.847Z,24.85
2023-04-09T03:41:59.680Z,26.83
2023-04-09T03:44:28.141Z,26.65
2023-04-09T03:46:58.026Z,26.77
2023-04-09T03:49:26.450Z,28.90
2023-04-09T03:51:54.881Z,26.25
2023-04-09T03:54:23.277Z,26.85
2023-04-09T03:56:51.738Z,26.77
2023-04-09T03:59:20.234Z,26.08
2023-04-09T04:01:48.958Z,27.95
2023-04-09T04:04:20.579Z,26.83
2023-04-09T04:06:51.563Z,29.45
2023-04-09T04:09:20.043Z,26.02
2023-04-09T04:11:48.543Z,27.45
2023-04-09T04:14:17.128Z,27.77
2023-04-09T04:16:45.628Z,26.23
2023-04-09T04:19:14.121Z,27.63
2023-04-09T04:21:43.984Z,28.00
2023-04-09T04:24:12.408Z,31.40
2023-04-09T04:26:41.669Z,30.67
2023-04-09T04:29:10.091Z,30.73
2023-04-09T04:31:38.607Z,28.55
2023-04-09T04:34:07.132Z,31.65
2023-04-09T04:36:35.573Z,30.30
2023-04-09T04:39:05.375Z,30.90
2023-04-09T04:41:33.865Z,29.27
2023-04-09T04:44:02.309Z,30.55
2023-04-09T04:46:30.914Z,29.83
2023-04-09T04:48:59.343Z,30.35
2023-04-09T04:51:28.139Z,31.13
2023-04-09T04:53:56.550Z,30.75
2023-04-09T04:56:26.367Z,32.05
2023-04-09T04:58:54.814Z,31.00
2023-04-09T05:01:23.307Z,30.75
2023-04-09T05:03:51.881Z,29.05
2023-04-09T05:06:20.352Z,30.80
2023-04-09T05:08:48.766Z,30.08
2023-04-09T05:11:17.246Z,29.88
2023-04-09T05:13:47.078Z,30.23
2023-04-09T05:16:18.693Z,31.08
2023-04-09T05:18:47.162Z,31.42
2023-04-09T05:21:15.615Z,32.42
2023-04-09T05:23:44.094Z,30.38
2023-04-09T05:26:12.548Z,31.00
2023-04-09T05:28:41.427Z,30.67
2023-04-09T05:31:13.365Z,29.50
2023-04-09T05:33:42.044Z,29.95
2023-04-09T05:36:10.825Z,30.40
2023-04-09T05:38:39.254Z,28.80
2023-04-09T05:41:07.697Z,29.95
2023-04-09T05:43:36.462Z,29.50
2023-04-09T05:46:05.051Z,29.38
2023-04-09T05:48:37.023Z,28.75
2023-04-09T05:51:05.665Z,30.63
2023-04-09T05:53:34.142Z,29.77
2023-04-09T05:56:02.624Z,29.33
2023-04-09T05:58:31.355Z,29.17
2023-04-09T06:00:59.818Z,29.00
2023-04-09T06:03:28.879Z,30.95
2023-04-09T06:05:58.831Z,30.02
2023-04-09T06:08:27.341Z,28.75
2023-04-09T06:10:55.938Z,29.10
2023-04-09T06:13:24.405Z,30.02
2023-04-09T06:15:52.942Z,30.50
2023-04-09T06:18:22.072Z,30.17
2023-04-09T06:20:50.512Z,31.08
2023-04-09T06:23:20.282Z,30.88
2023-04-09T06:25:48.732Z,29.35
2023-04-09T06:28:17.163Z,29.10
2023-04-09T06:30:45.668Z,30.05
2023-04-09T06:33:14.286Z,27.90
2023-04-09T06:35:43.871Z,27.42
2023-04-09T06:38:12.341Z,28.05
2023-04-09T06:40:42.189Z,27.13
2023-04-09T06:43:10.878Z,28.58
2023-04-09T06:45:41.042Z,27.33
2023-04-09T06:48:09.686Z,25.85
2023-04-09T06:50:38.151Z,24.45
2023-04-09T06:53:07.902Z,25.13
2023-04-09T06:55:36.486Z,25.10
2023-04-09T06:58:06.265Z,24.08
2023-04-09T07:00:34.736Z,22.77
2023-04-09T07:03:03.453Z,23.90
2023-04-09T07:05:32.321Z,23.70
2023-04-09T07:08:00.794Z,22.30
2023-04-09T07:10:29.260Z,22.63
2023-04-09T07:12:57.712Z,22.20
2023-04-09T07:15:27.655Z,21.30
2023-04-09T07:17:57.699Z,21.02
2023-04-09T07:20:26.428Z,21.20
2023-04-09T07:22:54.921Z,20.42
2023-04-09T07:25:23.965Z,18.02
2023-04-09T07:27:52.619Z,19.77
2023-04-09T07:30:21.077Z,19.98
2023-04-09T07:32:51.004Z,19.65
2023-04-09T07:35:19.659Z,19.30
2023-04-09T07:37:48.069Z,18.30
2023-04-09T07:40:16.574Z,16.17
2023-04-09T07:42:45.001Z,15.15
2023-04-09T07:45:13.448Z,14.38
2023-04-09T07:47:42.149Z,13.07
2023-04-09T07:50:12.592Z,12.35
2023-04-09T07:52:41.954Z,11.90
2023-04-09T07:55:10.830Z,11.60
2023-04-09T07:57:39.250Z,10.77
2023-04-09T08:00:08.436Z,10.95
2023-04-09T08:02:36.955Z,10.50
2023-04-09T08:05:05.580Z,10.07
2023-04-09T08:07:35.409Z,10.50
2023-04-09T08:10:04.005Z,10.30
2023-04-09T08:12:32.801Z,10.38
2023-04-09T08:15:03.665Z,8.57
2023-04-09T08:17:32.209Z,9.05
2023-04-09T08:20:00.667Z,7.88
2023-04-09T08:22:29.104Z,8.52
2023-04-09T08:25:00.266Z,8.57
2023-04-09T08:27:30.732Z,7.53
2023-04-09T08:29:59.183Z,7.72
2023-04-09T08:32:27.989Z,7.85
2023-04-09T08:34:56.666Z,7.65
2023-04-09T08:37:25.120Z,7.93
2023-04-09T08:39:53.671Z,7.80
2023-04-09T08:42:24.073Z,8.00
2023-04-09T08:44:52.680Z,7.80
2023-04-09T08:47:22.255Z,7.25
2023-04-09T08:49:50.741Z,7.88
2023-04-09T08:52:22.042Z,6.80
2023-04-09T08:54:52.524Z,7.03
2023-04-09T08:57:21.226Z,6.45
2023-04-09T08:59:51.049Z,6.45
2023-04-09T09:02:19.526Z,6.40
2023-04-09T09:04:48.675Z,6.85
2023-04-09T09:07:17.294Z,6.18
2023-04-09T09:09:53.289Z,6.78
2023-04-09T09:12:35.020Z,6.15
2023-04-09T09:15:05.338Z,6.10
2023-04-09T09:17:33.793Z,6.55
2023-04-09T09:20:20.842Z,5.60
2023-04-09T09:22:54.835Z,6.03
2023-04-09T09:25:25.621Z,5.93
2023-04-09T09:27:54.812Z,6.10
2023-04-09T09:30:25.746Z,5.80
2023-04-09T09:32:55.231Z,5.53
2023-04-09T09:35:23.984Z,5.35
2023-04-09T09:38:04.144Z,5.72
2023-04-09T09:40:32.765Z,5.75
2023-04-09T09:43:01.262Z,5.10
2023-04-09T09:45:31.449Z,5.82
2023-04-09T09:48:00.016Z,5.55
2023-04-09T09:50:30.698Z,5.70
2023-04-09T09:53:03.775Z,5.55
2023-04-09T09:55:33.831Z,5.47
2023-04-09T09:58:04.703Z,5.43
2023-04-09T10:00:34.913Z,5.65
2023-04-09T10:03:08.681Z,5.97
2023-04-09T10:05:39.256Z,6.57
2023-04-09T10:08:08.594Z,6.55
2023-04-09T10:10:37.874Z,6.05
2023-04-09T10:13:09.470Z,6.55
2023-04-09T10:15:39.609Z,5.90
2023-04-09T10:18:08.978Z,6.13
2023-04-09T10:20:42.300Z,5.75
2023-04-09T10:23:13.510Z,6.45
2023-04-09T10:25:43.100Z,6.38
2023-04-09T10:28:17.269Z,5.28
2023-04-09T10:30:47.479Z,6.07
2023-04-09T10:33:19.350Z,5.75
2023-04-09T10:35:49.237Z,5.80
2023-04-09T10:38:17.728Z,6.03
2023-04-09T10:40:50.938Z,6.35
2023-04-09T10:43:21.130Z,5.78
2023-04-09T10:45:53.441Z,5.85
2023-04-09T10:48:22.787Z,5.28
2023-04-09T10:50:52.865Z,6.47
2023-04-09T10:53:24.897Z,5.28
2023-04-09T10:55:54.092Z,5.30
2023-04-09T10:58:22.848Z,5.78
2023-04-09T11:00:53.412Z,6.00
2023-04-09T11:03:23.467Z,5.85
2023-04-09T11:06:01.700Z,5.70
2023-04-09T11:08:31.473Z,5.30
2023-04-09T11:11:01.383Z,5.70
2023-04-09T11:13:31.276Z,5.18
2023-04-09T11:16:03.389Z,5.47
2023-04-09T11:18:34.522Z,6.03
2023-04-09T11:21:04.374Z,6.15
2023-04-09T11:23:33.350Z,5.57
2023-04-09T11:26:02.836Z,5.50
2023-04-09T11:28:31.367Z,5.30
2023-04-09T11:31:01.800Z,6.00
2023-04-09T11:33:34.488Z,5.80
2023-04-09T11:36:03.139Z,6.15
2023-04-09T11:38:33.094Z,5.38
2023-04-09T11:41:01.550Z,5.72
2023-04-09T11:43:29.989Z,5.60
2023-04-09T11:45:58.498Z,6.07
2023-04-09T11:48:28.295Z,5.65
2023-04-09T11:50:56.753Z,5.70
2023-04-09T11:53:25.340Z,5.32
2023-04-09T11:55:54.902Z,5.47
2023-04-09T11:58:24.664Z,5.50
2023-04-09T12:00:55.572Z,5.50
2023-04-09T12:03:32.998Z,5.68
2023-04-09T12:06:05.073Z,5.40
2023-04-09T12:08:34.670Z,6.07
2023-04-09T12:11:10.488Z,6.07
2023-04-09T12:13:43.018Z,6.25
2023-04-09T12:16:11.815Z,6.80
2023-04-09T12:18:41.935Z,5.78
2023-04-09T12:21:10.447Z,5.22
2023-04-09T12:23:38.933Z,5.72
2023-04-09T12:26:07.518Z,5.40
2023-04-09T12:28:35.977Z,5.80
2023-04-09T12:31:04.454Z,6.22
2023-04-09T12:33:34.055Z,6.47
2023-04-09T12:36:03.906Z,5.88
2023-04-09T12:38:32.390Z,5.93
2023-04-09T12:41:01.300Z,5.88
2023-04-09T12:43:29.908Z,5.47
2023-04-09T12:45:58.396Z,6.18
2023-04-09T12:48:26.878Z,6.25
2023-04-09T12:50:55.399Z,5.40
2023-04-09T12:53:25.408Z,6.72
2023-04-09T12:55:53.899Z,5.55
2023-04-09T12:58:22.339Z,5.82
2023-04-09T13:00:50.954Z,5.38
2023-04-09T13:03:19.716Z,5.47
2023-04-09T13:05:48.289Z,5.88
2023-04-09T13:08:17.265Z,6.53
2023-04-09T13:10:47.140Z,6.15
2023-04-09T13:13:15.651Z,5.90
2023-04-09T13:15:44.995Z,5.63
2023-04-09T13:18:13.612Z,5.43
2023-04-09T13:20:42.125Z,5.53
2023-04-09T13:23:10.603Z,6.07
2023-04-09T13:25:39.036Z,5.80
2023-04-09T13:28:08.879Z,5.82
2023-04-09T13:30:37.481Z,5.68
2023-04-09T13:33:06.040Z,5.82
2023-04-09T13:35:34.520Z,5.93
2023-04-09T13:38:03.004Z,5.05
2023-04-09T13:40:31.477Z,6.60
2023-04-09T13:42:59.946Z,6.25
2023-04-09T13:45:29.801Z,6.05
2023-04-09T13:47:58.509Z,6.25
2023-04-09T13:50:27.095Z,5.63
2023-04-09T13:52:55.723Z,6.45
2023-04-09T13:55:24.210Z,6.00
2023-04-09T13:57:52.649Z,5.47
2023-04-09T14:00:21.324Z,5.80
2023-04-09T14:02:51.240Z,5.50
2023-04-09T14:05:19.774Z,5.80
2023-04-09T14:07:48.195Z,6.22
2023-04-09T14:10:17.049Z,6.10
2023-04-09T14:12:45.461Z,5.80
2023-04-09T14:15:13.954Z,5.75
2023-04-09T14:17:42.429Z,6.40
2023-04-09T14:20:12.553Z,6.03
2023-04-09T14:22:42.977Z,5.72
2023-04-09T14:25:11.695Z,5.60
2023-04-09T14:27:40.162Z,5.13
2023-04-09T14:30:11.033Z,5.10
2023-04-09T14:32:39.477Z,5.32
2023-04-09T14:35:08.106Z,4.95
2023-04-09T14:37:40.770Z,5.38
2023-04-09T14:40:10.071Z,5.53
2023-04-09T14:42:38.493Z,5.78
2023-04-09T14:45:07.195Z,4.82
2023-04-09T14:47:35.647Z,4.85
2023-04-09T14:50:04.184Z,4.55
2023-04-09T14:52:32.694Z,4.93
2023-04-09T14:55:02.520Z,4.80
2023-04-09T14:57:31.333Z,4.90
2023-04-09T14:59:59.907Z,4.82
2023-04-09T15:02:28.739Z,4.32
2023-04-09T15:04:57.484Z,4.80
2023-04-09T15:07:26.564Z,5.10
2023-04-09T15:09:55.052Z,4.57
2023-04-09T15:12:24.835Z,4.45
2023-04-09T15:14:53.468Z,4.55
2023-04-09T15:17:21.975Z,4.53
2023-04-09T15:19:50.463Z,4.57
2023-04-09T15:22:18.888Z,4.72
2023-04-09T15:24:47.330Z,4.32
2023-04-09T15:27:16.070Z,4.18
2023-04-09T15:29:45.994Z,4.53
2023-04-09T15:32:14.531Z,4.70
2023-04-09T15:34:42.976Z,4.55
2023-04-09T15:37:11.423Z,5.00
2023-04-09T15:39:40.010Z,4.88
2023-04-09T15:42:10.268Z,5.50
2023-04-09T15:44:40.128Z,4.55
2023-04-09T15:47:10.093Z,5.05
2023-04-09T15:49:38.696Z,4.95
2023-04-09T15:52:07.156Z,4.20
2023-04-09T15:54:35.648Z,4.60
2023-04-09T15:57:04.206Z,4.47
2023-04-09T15:59:32.641Z,4.40
2023-04-09T16:02:01.186Z,4.90
2023-04-09T16:04:31.114Z,4.93
2023-04-09T16:06:59.595Z,4.50
2023-04-09T16:09:28.077Z,4.05
2023-04-09T16:11:56.619Z,3.88
2023-04-09T16:14:25.100Z,4.45
2023-04-09T16:16:53.856Z,4.80
2023-04-09T16:19:22.411Z,4.93
2023-04-09T16:21:52.424Z,4.63
2023-04-09T16:24:20.897Z,4.15
2023-04-09T16:26:49.543Z,4.57
2023-04-09T16:29:17.988Z,4.05
2023-04-09T16:31:46.805Z,4.72
2023-04-09T16:34:15.799Z,4.50
2023-04-09T16:36:44.702Z,4.30
2023-04-09T16:39:15.281Z,5.32
2023-04-09T16:41:43.745Z,4.05
2023-04-09T16:44:12.308Z,4.97
2023-04-09T16:46:40.764Z,4.30
2023-04-09T16:49:09.191Z,4.97
2023-04-09T16:51:38.095Z,4.88
2023-04-09T16:54:06.596Z,4.40
2023-04-09T16:56:36.695Z,4.38
2023-04-09T16:59:05.301Z,4.70
2023-04-09T17:01:34.924Z,4.65
2023-04-09T17:04:03.694Z,4.20
2023-04-09T17:06:32.273Z,4.60
2023-04-09T17:09:01.444Z,4.75
2023-04-09T17:11:30.083Z,4.85
2023-04-09T17:14:00.059Z,4.80
2023-04-09T17:16:28.850Z,4.68
2023-04-09T17:18:57.378Z,4.68
2023-04-09T17:21:26.514Z,5.18
2023-04-09T17:23:55.275Z,4.97
2023-04-09T17:26:24.715Z,5.45
2023-04-09T17:28:53.492Z,5.32
2023-04-09T17:31:24.488Z,5.43
2023-04-09T17:33:53.738Z,5.40
2023-04-09T17:36:22.910Z,5.90
2023-04-09T17:38:53.244Z,5.57
2023-04-09T17:41:21.768Z,5.07
2023-04-09T17:43:50.294Z,5.68
2023-04-09T17:46:18.804Z,5.10
2023-04-09T17:48:48.751Z,5.15
2023-04-09T17:51:18.513Z,5.10
2023-04-09T17:53:47.409Z,5.93
2023-04-09T17:56:18.915Z,4.82
2023-04-09T17:58:47.785Z,5.60
2023-04-09T18:01:16.431Z,4.45
2023-04-09T18:03:46.031Z,6.13
2023-04-09T18:06:17.403Z,5.75
2023-04-09T18:08:45.863Z,4.90
2023-04-09T18:11:15.553Z,5.45
2023-04-09T18:13:44.223Z,5.07
2023-04-09T18:16:13.348Z,6.45
2023-04-09T18:18:41.857Z,5.13
2023-04-09T18:21:10.572Z,5.65
2023-04-09T18:23:40.624Z,5.22
2023-04-09T18:26:09.112Z,5.43
2023-04-09T18:28:37.558Z,5.40
2023-04-09T18:31:06.177Z,5.35
2023-04-09T18:33:34.694Z,4.93
2023-04-09T18:36:03.411Z,5.38
2023-04-09T18:38:32.040Z,5.30
2023-04-09T18:41:02.331Z,5.00
2023-04-09T18:43:30.803Z,5.03
2023-04-09T18:45:59.312Z,5.28
2023-04-09T18:48:28.248Z,5.38
2023-04-09T18:50:56.721Z,4.70
2023-04-09T18:53:26.448Z,5.45
2023-04-09T18:55:55.137Z,5.63
2023-04-09T18:58:24.991Z,5.47
2023-04-09T19:00:53.525Z,5.20
2023-04-09T19:03:22.624Z,5.00
2023-04-09T19:05:51.430Z,4.90
2023-04-09T19:08:19.901Z,5.78
2023-04-09T19:10:48.591Z,6.00
2023-04-09T19:13:17.049Z,6.28
2023-04-09T19:15:46.994Z,6.63
2023-04-09T19:18:17.019Z,6.50
2023-04-09T19:20:45.476Z,6.30
2023-04-09T19:23:14.007Z,6.20
2023-04-09T19:25:42.919Z,5.60
2023-04-09T19:30:52.284Z,5.68
2023-04-09T19:33:21.594Z,5.68
2023-04-09T19:35:50.718Z,5.90
2023-04-09T19:38:19.433Z,5.60
2023-04-09T19:40:48.338Z,5.80
2023-04-09T19:43:17.010Z,5.95
2023-04-09T19:45:45.795Z,6.13
2023-04-09T19:48:15.883Z,6.25
2023-04-09T19:50:45.378Z,6.40
2023-04-09T19:53:13.848Z,6.10
2023-04-09T19:55:42.508Z,5.85
2023-04-09T19:58:10.945Z,6.65
2023-04-09T20:00:39.450Z,6.35
2023-04-09T20:03:08.214Z,6.03
2023-04-09T20:05:38.222Z,5.85
2023-04-09T20:08:11.806Z,5.72
2023-04-09T20:10:45.029Z,6.28
2023-04-09T20:13:13.497Z,6.05
2023-04-09T20:15:41.971Z,5.75
2023-04-09T20:18:10.642Z,9.77
2023-04-09T20:20:40.562Z,12.65
2023-04-09T20:23:09.147Z,9.18
2023-04-09T20:25:37.619Z,8.35
2023-04-09T20:28:06.471Z,7.30
2023-04-09T20:30:35.003Z,6.95
2023-04-09T20:33:03.504Z,6.63
2023-04-09T20:35:36.155Z,6.57
2023-04-09T20:38:06.122Z,7.40
2023-04-09T20:40:37.603Z,8.15
2023-04-09T20:43:06.444Z,7.90
2023-04-09T20:45:34.938Z,7.53
2023-04-09T20:48:03.487Z,7.07
2023-04-09T20:50:32.299Z,7.45
2023-04-09T20:53:01.172Z,7.45
2023-04-09T20:55:31.826Z,7.50
2023-04-09T20:58:00.314Z,6.82
2023-04-09T21:00:28.815Z,6.20
2023-04-09T21:02:57.524Z,6.80
2023-04-09T21:05:26.079Z,6.60
2023-04-09T21:07:54.673Z,5.88
2023-04-09T21:10:23.279Z,6.47
2023-04-09T21:12:53.224Z,6.10
2023-04-09T21:15:21.852Z,5.88
2023-04-09T21:17:50.409Z,6.30
2023-04-09T21:20:19.472Z,7.15
2023-04-09T21:22:47.879Z,6.18
2023-04-09T21:25:16.362Z,6.47
2023-04-09T21:27:44.827Z,6.18
2023-04-09T21:30:14.883Z,6.13
2023-04-09T21:32:43.377Z,6.60
2023-04-09T21:35:12.198Z,6.15
2023-04-09T21:37:40.704Z,6.15
2023-04-09T21:40:09.770Z,6.28
2023-04-09T21:42:38.249Z,6.32
2023-04-09T21:45:07.056Z,6.25
2023-04-09T21:47:36.924Z,6.00
2023-04-09T21:50:05.647Z,6.45
2023-04-09T21:52:34.407Z,6.60
2023-04-09T21:55:03.358Z,6.57
2023-04-09T21:57:31.837Z,6.68
2023-04-09T22:00:00.459Z,7.57
2023-04-09T22:02:29.286Z,6.47
2023-04-09T22:05:00.290Z,6.82
2023-04-09T22:07:28.966Z,7.07
2023-04-09T22:09:59.309Z,6.70
2023-04-09T22:12:28.272Z,7.50
2023-04-09T22:14:57.079Z,7.00
2023-04-09T22:17:25.792Z,6.78
2023-04-09T22:19:54.264Z,6.55
2023-04-09T22:22:24.124Z,6.13
2023-04-09T22:24:52.634Z,7.07
2023-04-09T22:27:21.117Z,6.97
2023-04-09T22:29:49.571Z,6.65
2023-04-09T22:32:18.092Z,6.10
2023-04-09T22:34:46.589Z,6.78
2023-04-09T22:37:17.043Z,7.10
2023-04-09T22:39:46.993Z,6.95
2023-04-09T22:42:15.622Z,7.13
2023-04-09T22:44:44.647Z,6.60
2023-04-09T22:47:13.071Z,6.50
2023-04-09T22:49:41.568Z,6.40
2023-04-09T22:52:10.255Z,6.72
2023-04-09T22:54:39.031Z,6.90
2023-04-09T22:57:08.831Z,6.30
2023-04-09T22:59:39.978Z,7.43
2023-04-09T23:02:09.554Z,6.75
2023-04-09T23:04:38.210Z,6.50
2023-04-09T23:07:06.732Z,6.88
2023-04-09T23:09:35.298Z,6.25
2023-04-09T23:12:04.022Z,6.97
2023-04-09T23:14:33.852Z,7.15
2023-04-09T23:17:02.357Z,6.13
2023-04-09T23:19:30.809Z,6.65
2023-04-09T23:21:59.195Z,6.57
2023-04-09T23:24:27.697Z,6.47
2023-04-09T23:26:56.261Z,6.50
2023-04-09T23:29:24.792Z,6.28
2023-04-09T23:31:54.663Z,6.53
2023-04-09T23:34:23.205Z,6.60
2023-04-09T23:36:51.639Z,6.53
2023-04-09T23:39:20.959Z,6.93
2023-04-09T23:41:49.396Z,6.80
2023-04-09T23:44:17.846Z,6.40
2023-04-09T23:46:46.667Z,7.40
2023-04-09T23:49:16.835Z,6.22
2023-04-09T23:51:45.267Z,6.28
2023-04-09T23:54:13.877Z,6.38
2023-04-09T23:56:42.355Z,5.93
2023-04-09T23:59:10.846Z,6.53
